createdAt,value
2022-12-12T00:01:14.675Z,19.77
2022-12-12T00:03:43.204Z,20.53
2022-12-12T00:06:13.126Z,20.30
2022-12-12T00:08:41.657Z,20.20
2022-12-12T00:11:12.869Z,19.67
2022-12-12T00:13:41.408Z,20.23
2022-12-12T00:16:10.695Z,19.53
2022-12-12T00:18:39.085Z,19.87
2022-12-12T00:21:07.871Z,21.87
2022-12-12T00:23:37.615Z,21.63
2022-12-12T00:26:06.704Z,21.60
2022-12-12T00:28:35.045Z,21.27
2022-12-12T00:31:03.424Z,21.00
2022-12-12T00:33:31.732Z,20.27
2022-12-12T00:36:00.134Z,21.40
2022-12-12T00:38:28.516Z,20.83
2022-12-12T00:40:58.433Z,22.80
2022-12-12T00:43:26.783Z,21.87
2022-12-12T00:45:55.094Z,21.37
2022-12-12T00:48:23.475Z,20.70
2022-12-12T00:50:51.829Z,21.63
2022-12-12T00:53:20.199Z,22.20
2022-12-12T00:55:48.649Z,21.77
2022-12-12T00:58:18.460Z,21.90
2022-12-12T01:00:46.762Z,22.43
2022-12-12T01:03:15.285Z,21.10
2022-12-12T01:05:43.696Z,21.77
2022-12-12T01:08:12.127Z,21.20
2022-12-12T01:10:40.495Z,22.00
2022-12-12T01:13:08.804Z,21.10
2022-12-12T01:15:38.529Z,21.77
2022-12-12T01:18:06.895Z,22.40
2022-12-12T01:20:35.274Z,22.83
2022-12-12T01:23:03.609Z,22.20
2022-12-12T01:25:31.988Z,22.13
2022-12-12T01:28:00.555Z,21.60
2022-12-12T01:30:29.065Z,22.23
2022-12-12T01:32:58.756Z,21.97
2022-12-12T01:35:27.192Z,20.87
2022-12-12T01:37:55.479Z,21.17
2022-12-12T01:40:24.952Z,22.07
2022-12-12T01:42:53.353Z,21.40
2022-12-12T01:45:40.096Z,21.07
2022-12-12T01:48:09.845Z,21.33
2022-12-12T01:50:38.287Z,20.90
2022-12-12T01:53:06.651Z,20.93
2022-12-12T01:55:35.082Z,21.03
2022-12-12T01:58:03.393Z,21.93
2022-12-12T02:00:31.715Z,21.17
2022-12-12T02:03:00.089Z,21.70
2022-12-12T02:05:32.283Z,20.80
2022-12-12T02:08:00.827Z,21.60
2022-12-12T02:10:29.163Z,21.50
2022-12-12T02:12:58.268Z,21.13
2022-12-12T02:15:26.808Z,20.70
2022-12-12T02:17:57.306Z,22.37
2022-12-12T02:20:48.166Z,21.90
2022-12-12T02:23:25.735Z,21.67
2022-12-12T02:26:02.215Z,21.80
2022-12-12T02:28:45.485Z,22.00
2022-12-12T02:31:16.247Z,21.70
2022-12-12T02:33:46.642Z,22.43
2022-12-12T02:36:15.693Z,21.77
2022-12-12T02:38:47.125Z,21.90
2022-12-12T02:41:16.529Z,22.53
2022-12-12T02:43:46.790Z,22.60
2022-12-12T02:46:18.399Z,21.37
2022-12-12T02:48:47.406Z,22.23
2022-12-12T02:51:15.699Z,22.07
2022-12-12T02:53:44.036Z,21.83
2022-12-12T02:56:27.163Z,22.77
2022-12-12T02:58:55.493Z,21.37
2022-12-12T03:01:26.095Z,22.60
2022-12-12T03:04:12.852Z,22.40
2022-12-12T03:07:05.946Z,21.77
2022-12-12T03:09:37.037Z,21.87
2022-12-12T03:12:07.095Z,21.20
2022-12-12T03:14:38.378Z,21.73
2022-12-12T03:17:10.532Z,21.93
2022-12-12T03:19:40.383Z,22.77
2022-12-12T03:22:09.471Z,22.47
2022-12-12T03:24:39.192Z,22.90
2022-12-12T03:27:08.507Z,21.00
2022-12-12T03:29:38.084Z,21.77
2022-12-12T03:32:09.094Z,22.10
2022-12-12T03:34:38.216Z,21.93
2022-12-12T03:37:07.977Z,21.00
2022-12-12T03:39:37.355Z,22.53
2022-12-12T03:42:06.984Z,22.13
2022-12-12T03:44:41.119Z,22.53
2022-12-12T03:47:12.257Z,22.90
2022-12-12T03:49:41.840Z,23.70
2022-12-12T03:52:11.650Z,23.30
2022-12-12T03:54:41.578Z,22.77
2022-12-12T03:57:10.680Z,23.63
2022-12-12T03:59:40.309Z,22.17
2022-12-12T04:02:09.881Z,23.13
2022-12-12T04:04:40.883Z,22.97
2022-12-12T04:07:10.844Z,23.40
2022-12-12T04:09:56.833Z,23.00
2022-12-12T04:12:43.593Z,22.83
2022-12-12T04:15:18.774Z,23.20
2022-12-12T04:17:48.315Z,22.37
2022-12-12T04:20:40.022Z,23.50
2022-12-12T04:23:19.246Z,23.90
2022-12-12T04:26:11.869Z,22.23
2022-12-12T04:28:40.734Z,22.27
2022-12-12T04:31:09.122Z,22.23
2022-12-12T04:33:38.451Z,21.83
2022-12-12T04:36:08.648Z,23.20
2022-12-12T04:38:36.951Z,23.20
2022-12-12T04:41:05.251Z,22.57
2022-12-12T04:43:34.226Z,22.63
2022-12-12T04:46:03.832Z,23.03
2022-12-12T04:48:37.937Z,22.70
2022-12-12T04:51:08.209Z,22.67
2022-12-12T04:53:37.500Z,22.63
2022-12-12T04:56:07.084Z,22.40
2022-12-12T04:58:35.529Z,21.60
2022-12-12T05:01:05.883Z,22.90
2022-12-12T05:03:34.875Z,22.80
2022-12-12T05:06:03.924Z,21.63
2022-12-12T05:08:34.159Z,22.17
2022-12-12T05:11:03.024Z,21.40
2022-12-12T05:13:31.795Z,21.17
2022-12-12T05:16:00.215Z,22.97
2022-12-12T05:18:28.534Z,21.83
2022-12-12T05:20:56.842Z,20.83
2022-12-12T05:23:27.894Z,21.33
2022-12-12T05:25:59.952Z,22.27
2022-12-12T05:28:28.285Z,22.27
2022-12-12T05:30:56.627Z,21.73
2022-12-12T05:33:24.967Z,23.00
2022-12-12T05:35:53.329Z,21.67
2022-12-12T05:38:21.604Z,20.87
2022-12-12T05:40:50.809Z,22.27
2022-12-12T05:43:20.463Z,22.23
2022-12-12T05:45:48.961Z,20.43
2022-12-12T05:48:22.621Z,22.27
2022-12-12T05:50:52.647Z,20.83
2022-12-12T05:53:20.989Z,21.40
2022-12-12T05:55:51.080Z,21.90
2022-12-12T05:58:20.915Z,22.63
2022-12-12T06:00:49.824Z,21.73
2022-12-12T06:03:18.528Z,21.73
2022-12-12T06:05:47.035Z,21.33
2022-12-12T06:08:15.549Z,22.00
2022-12-12T06:10:45.461Z,21.80
2022-12-12T06:13:14.000Z,21.93
2022-12-12T06:15:43.934Z,20.60
2022-12-12T06:18:12.747Z,22.10
2022-12-12T06:20:41.170Z,21.30
2022-12-12T06:23:09.645Z,22.33
2022-12-12T06:25:38.064Z,21.83
2022-12-12T06:28:06.494Z,21.77
2022-12-12T06:30:34.921Z,21.10
2022-12-12T06:33:04.609Z,21.13
2022-12-12T06:35:32.984Z,21.37
2022-12-12T06:38:01.379Z,19.97
2022-12-12T06:40:29.928Z,22.27
2022-12-12T06:42:58.231Z,22.33
2022-12-12T06:45:26.769Z,21.57
2022-12-12T06:47:55.204Z,21.47
2022-12-12T06:50:24.933Z,20.93
2022-12-12T06:52:53.313Z,21.43
2022-12-12T06:55:21.594Z,20.57
2022-12-12T06:57:49.921Z,21.57
2022-12-12T07:00:18.616Z,20.90
2022-12-12T07:02:47.202Z,20.83
2022-12-12T07:05:15.810Z,20.87
2022-12-12T07:07:45.810Z,21.10
2022-12-12T07:10:14.218Z,21.63
2022-12-12T07:12:46.597Z,22.17
2022-12-12T07:15:16.149Z,21.30
2022-12-12T07:17:44.667Z,19.93
2022-12-12T07:20:16.063Z,20.57
2022-12-12T07:22:45.749Z,21.60
2022-12-12T07:25:14.500Z,21.80
2022-12-12T07:27:43.142Z,20.90
2022-12-12T07:30:12.405Z,22.57
2022-12-12T07:32:40.710Z,21.33
2022-12-12T07:35:09.460Z,20.97
2022-12-12T07:37:37.888Z,21.53
2022-12-12T07:40:12.759Z,20.77
2022-12-12T07:42:41.174Z,19.63
2022-12-12T07:45:13.767Z,20.30
2022-12-12T07:47:46.321Z,19.90
2022-12-12T07:50:14.758Z,20.77
2022-12-12T07:52:43.189Z,20.17
2022-12-12T07:55:13.313Z,20.40
2022-12-12T07:57:42.215Z,20.43
2022-12-12T08:00:13.125Z,20.17
2022-12-12T08:02:41.496Z,20.33
2022-12-12T08:05:10.282Z,20.63
2022-12-12T08:07:38.701Z,21.93
2022-12-12T08:10:07.305Z,20.53
2022-12-12T08:12:37.116Z,19.80
2022-12-12T08:15:09.064Z,20.63
2022-12-12T08:17:37.444Z,19.70
2022-12-12T08:20:07.077Z,21.07
2022-12-12T08:22:38.322Z,20.10
2022-12-12T08:25:08.374Z,22.07
2022-12-12T08:27:38.104Z,20.37
2022-12-12T08:30:07.054Z,20.33
2022-12-12T08:32:35.367Z,21.17
2022-12-12T08:35:04.249Z,22.37
2022-12-12T08:37:32.637Z,22.13
2022-12-12T08:40:01.033Z,21.03
2022-12-12T08:42:32.275Z,22.27
2022-12-12T08:45:01.927Z,23.60
2022-12-12T08:47:30.316Z,22.90
2022-12-12T08:49:58.744Z,23.77
2022-12-12T08:52:27.159Z,22.73
2022-12-12T08:54:55.471Z,23.77
2022-12-12T08:57:26.587Z,22.17
2022-12-12T08:59:54.924Z,22.27
2022-12-12T09:02:24.759Z,23.53
2022-12-12T09:04:53.464Z,21.23
2022-12-12T09:07:22.276Z,23.93
2022-12-12T09:09:50.655Z,25.23
2022-12-12T09:12:18.932Z,26.37
2022-12-12T09:14:47.282Z,28.70
2022-12-12T09:17:15.607Z,27.33
2022-12-12T09:19:45.778Z,25.83
2022-12-12T09:22:14.088Z,29.03
2022-12-12T09:24:42.402Z,28.23
2022-12-12T09:27:10.681Z,29.07
2022-12-12T09:29:39.115Z,27.47
2022-12-12T09:32:10.626Z,28.67
2022-12-12T09:34:39.134Z,30.23
2022-12-12T09:37:08.832Z,29.93
2022-12-12T09:39:37.170Z,31.27
2022-12-12T09:42:12.157Z,31.23
2022-12-12T09:44:40.647Z,31.60
2022-12-12T09:47:09.554Z,32.63
2022-12-12T09:49:43.426Z,33.47
2022-12-12T09:52:13.770Z,34.03
2022-12-12T09:54:42.041Z,33.63
2022-12-12T09:57:13.812Z,31.03
2022-12-12T09:59:42.943Z,32.27
2022-12-12T10:02:19.437Z,31.60
2022-12-12T10:04:51.003Z,29.10
2022-12-12T10:07:21.617Z,29.57
2022-12-12T10:09:55.255Z,28.83
2022-12-12T10:12:23.700Z,29.87
2022-12-12T10:14:53.148Z,29.10
2022-12-12T10:17:23.837Z,26.67
2022-12-12T10:19:52.824Z,26.77
2022-12-12T10:22:25.716Z,27.47
2022-12-12T10:24:56.082Z,27.53
2022-12-12T10:27:25.103Z,24.93
2022-12-12T10:29:53.479Z,24.20
2022-12-12T10:32:28.866Z,24.33
2022-12-12T10:35:00.405Z,23.27
2022-12-12T10:37:35.169Z,21.53
2022-12-12T10:40:05.622Z,24.47
2022-12-12T10:42:35.316Z,23.23
2022-12-12T10:45:08.189Z,24.23
2022-12-12T10:47:36.611Z,21.93
2022-12-12T10:50:13.115Z,23.37
2022-12-12T10:52:43.354Z,23.17
2022-12-12T10:55:17.548Z,22.50
2022-12-12T10:57:45.908Z,21.90
2022-12-12T11:00:18.521Z,20.80
2022-12-12T11:02:46.931Z,22.47
2022-12-12T11:05:18.645Z,22.00
2022-12-12T11:07:48.849Z,21.63
2022-12-12T11:10:26.749Z,21.27
2022-12-12T11:12:58.270Z,21.10
2022-12-12T11:15:30.570Z,19.67
2022-12-12T11:18:05.739Z,22.07
2022-12-12T11:20:34.724Z,21.43
2022-12-12T11:23:04.424Z,21.13
2022-12-12T11:25:33.147Z,20.47
2022-12-12T11:28:06.386Z,19.70
2022-12-12T11:30:36.155Z,20.07
2022-12-12T11:33:04.842Z,21.40
2022-12-12T11:35:33.779Z,20.33
2022-12-12T11:38:02.405Z,20.97
2022-12-12T11:40:32.851Z,20.57
2022-12-12T11:43:07.951Z,21.13
2022-12-12T11:45:36.345Z,20.83
2022-12-12T11:48:07.195Z,20.83
2022-12-12T11:50:35.976Z,20.07
2022-12-12T11:53:04.460Z,21.03
2022-12-12T11:55:36.096Z,18.90
2022-12-12T11:58:08.669Z,19.33
2022-12-12T12:00:39.681Z,19.10
2022-12-12T12:03:19.900Z,19.33
2022-12-12T12:05:52.237Z,18.57
2022-12-12T12:08:24.873Z,18.07
2022-12-12T12:11:01.862Z,18.07
2022-12-12T12:13:34.915Z,17.10
2022-12-12T12:16:05.712Z,19.07
2022-12-12T12:18:37.343Z,17.77
2022-12-12T12:21:11.387Z,17.23
2022-12-12T12:23:43.335Z,16.93
2022-12-12T12:26:15.186Z,17.80
2022-12-12T12:28:47.639Z,17.37
2022-12-12T12:31:16.564Z,17.97
2022-12-12T12:33:48.178Z,17.07
2022-12-12T12:36:21.072Z,17.00
2022-12-12T12:38:57.679Z,16.80
2022-12-12T12:41:31.187Z,15.97
2022-12-12T12:44:02.315Z,17.63
2022-12-12T12:46:32.355Z,17.77
2022-12-12T12:49:00.908Z,16.87
2022-12-12T12:51:31.217Z,17.17
2022-12-12T12:54:00.919Z,16.10
2022-12-12T12:56:31.086Z,15.73
2022-12-12T12:59:00.189Z,16.27
2022-12-12T13:01:29.097Z,17.40
2022-12-12T13:03:59.499Z,16.90
2022-12-12T13:06:35.948Z,16.20
2022-12-12T13:09:05.119Z,15.63
2022-12-12T13:11:36.024Z,15.37
2022-12-12T13:14:06.832Z,15.17
2022-12-12T13:16:35.206Z,15.40
2022-12-12T13:19:04.961Z,14.10
2022-12-12T13:21:34.066Z,14.97
2022-12-12T13:24:03.732Z,15.33
2022-12-12T13:26:35.593Z,13.63
2022-12-12T13:29:07.098Z,12.30
2022-12-12T13:31:45.184Z,11.93
2022-12-12T13:34:13.821Z,11.73
2022-12-12T13:36:43.029Z,12.50
2022-12-12T13:39:23.750Z,12.30
2022-12-12T13:41:56.341Z,11.23
2022-12-12T13:44:35.866Z,13.00
2022-12-12T13:47:04.252Z,12.73
2022-12-12T13:49:34.333Z,12.20
2022-12-12T13:52:22.348Z,11.10
2022-12-12T13:54:50.799Z,10.73
2022-12-12T13:57:26.246Z,13.07
2022-12-12T14:00:13.305Z,11.43
2022-12-12T14:02:44.211Z,10.13
2022-12-12T14:05:13.655Z,10.73
2022-12-12T14:07:42.076Z,10.60
2022-12-12T14:10:20.576Z,10.43
2022-12-12T14:12:49.078Z,11.37
2022-12-12T14:15:21.433Z,10.40
2022-12-12T14:17:55.587Z,10.10
2022-12-12T14:20:28.199Z,11.07
2022-12-12T14:23:17.681Z,11.20
2022-12-12T14:25:46.014Z,10.77
2022-12-12T14:28:18.302Z,11.10
2022-12-12T14:30:47.833Z,11.17
2022-12-12T14:33:33.469Z,11.70
2022-12-12T14:36:04.111Z,10.63
2022-12-12T14:38:35.175Z,11.53
2022-12-12T14:41:03.861Z,9.80
2022-12-12T14:43:32.463Z,9.93
2022-12-12T14:46:00.997Z,10.73
2022-12-12T14:48:31.216Z,9.97
2022-12-12T14:51:01.187Z,9.67
2022-12-12T14:53:33.199Z,10.13
2022-12-12T14:56:02.281Z,9.53
2022-12-12T14:58:30.971Z,9.73
2022-12-12T15:00:59.781Z,9.93
2022-12-12T15:03:29.603Z,10.47
2022-12-12T15:06:16.683Z,10.30
2022-12-12T15:08:46.411Z,9.43
2022-12-12T15:11:15.114Z,9.57
2022-12-12T15:13:50.885Z,10.90
2022-12-12T15:16:19.390Z,10.73
2022-12-12T15:18:49.175Z,12.23
2022-12-12T15:21:20.454Z,13.30
2022-12-12T15:23:50.378Z,12.00
2022-12-12T15:26:19.142Z,12.00
2022-12-12T15:28:47.770Z,11.27
2022-12-12T15:31:16.919Z,12.30
2022-12-12T15:33:45.425Z,12.07
2022-12-12T15:36:18.620Z,12.77
2022-12-12T15:38:47.146Z,12.67
2022-12-12T15:41:16.993Z,12.90
2022-12-12T15:43:45.410Z,13.00
2022-12-12T15:46:15.224Z,13.27
2022-12-12T15:48:43.862Z,12.80
2022-12-12T15:51:12.273Z,12.27
2022-12-12T15:53:41.021Z,11.97
2022-12-12T15:56:12.677Z,12.63
2022-12-12T15:58:42.795Z,12.87
2022-12-12T16:01:20.148Z,13.50
2022-12-12T16:03:57.140Z,13.40
2022-12-12T16:06:25.877Z,13.33
2022-12-12T16:08:55.497Z,13.90
2022-12-12T16:11:42.894Z,12.57
2022-12-12T16:14:32.554Z,14.07
2022-12-12T16:17:05.938Z,15.70
2022-12-12T16:19:52.220Z,13.70
2022-12-12T16:22:35.836Z,14.33
2022-12-12T16:25:15.041Z,13.97
2022-12-12T16:27:43.611Z,14.53
2022-12-12T16:30:14.885Z,14.37
2022-12-12T16:32:43.438Z,14.60
2022-12-12T16:35:11.994Z,13.60
2022-12-12T16:37:40.321Z,13.73
2022-12-12T16:40:10.150Z,13.63
2022-12-12T16:42:38.553Z,14.57
2022-12-12T16:45:07.555Z,15.00
2022-12-12T16:47:37.279Z,15.87
2022-12-12T16:50:05.961Z,15.13
2022-12-12T16:52:34.573Z,15.03
2022-12-12T16:55:02.993Z,16.50
2022-12-12T16:57:31.356Z,15.73
2022-12-12T16:59:59.788Z,16.97
2022-12-12T17:02:28.144Z,16.97
2022-12-12T17:04:58.045Z,15.60
2022-12-12T17:07:26.463Z,16.57
2022-12-12T17:09:54.824Z,16.23
2022-12-12T17:12:23.205Z,16.73
2022-12-12T17:14:51.897Z,17.37
2022-12-12T17:17:20.335Z,17.30
2022-12-12T17:19:48.712Z,15.87
2022-12-12T17:22:18.459Z,16.50
2022-12-12T17:24:47.238Z,16.03
2022-12-12T17:27:15.627Z,15.07
2022-12-12T17:29:48.407Z,16.27
2022-12-12T17:32:21.459Z,16.73
2022-12-12T17:34:52.995Z,16.43
2022-12-12T17:37:23.609Z,15.97
2022-12-12T17:39:52.138Z,16.37
2022-12-12T17:42:20.568Z,17.30
2022-12-12T17:44:49.135Z,16.27
2022-12-12T17:47:17.676Z,17.57
2022-12-12T17:49:46.168Z,18.07
2022-12-12T17:52:14.614Z,17.63
2022-12-12T17:54:44.514Z,17.67
2022-12-12T17:57:35.760Z,16.70
2022-12-12T18:00:04.755Z,18.80
2022-12-12T18:02:34.270Z,19.20
2022-12-12T18:05:03.637Z,19.37
2022-12-12T18:07:32.134Z,18.90
2022-12-12T18:10:02.238Z,18.50
2022-12-12T18:12:30.656Z,18.10
2022-12-12T18:14:59.163Z,19.20
2022-12-12T18:17:27.734Z,18.60
2022-12-12T18:19:56.326Z,19.10
2022-12-12T18:22:24.957Z,19.87
2022-12-12T18:24:53.318Z,18.53
2022-12-12T18:27:23.031Z,18.83
2022-12-12T18:29:51.380Z,17.00
2022-12-12T18:32:20.070Z,17.63
2022-12-12T18:34:48.441Z,18.47
2022-12-12T18:37:16.972Z,18.20
2022-12-12T18:39:45.401Z,18.03
2022-12-12T18:42:13.851Z,18.40
2022-12-12T18:44:43.597Z,18.97
2022-12-12T18:47:12.202Z,17.60
2022-12-12T18:49:40.635Z,18.27
2022-12-12T18:52:09.494Z,17.97
2022-12-12T18:54:37.809Z,17.93
2022-12-12T18:57:06.161Z,17.93
2022-12-12T18:59:34.885Z,18.97
2022-12-12T19:02:04.827Z,19.77
2022-12-12T19:04:33.221Z,20.10
2022-12-12T19:07:01.583Z,19.43
2022-12-12T19:09:29.931Z,19.33
2022-12-12T19:12:02.227Z,20.43
2022-12-12T19:21:24.791Z,21.50
2022-12-12T19:23:53.493Z,22.50
2022-12-12T19:26:25.220Z,21.70
2022-12-12T19:28:53.689Z,22.63
2022-12-12T19:31:22.025Z,22.43
2022-12-12T19:33:50.912Z,21.07
2022-12-12T19:36:19.731Z,21.97
2022-12-12T19:38:49.551Z,23.63
2022-12-12T19:41:24.548Z,22.37
2022-12-12T19:43:57.719Z,23.80
2022-12-12T19:46:26.629Z,22.40
2022-12-12T19:48:55.380Z,21.87
2022-12-12T19:51:24.069Z,20.93
2022-12-12T19:53:54.480Z,21.80
2022-12-12T19:56:26.474Z,20.60
2022-12-12T19:58:54.970Z,20.63
2022-12-12T20:01:23.776Z,21.10
2022-12-12T20:03:52.626Z,21.47
2022-12-12T20:06:20.989Z,22.07
2022-12-12T20:08:49.448Z,20.63
2022-12-12T20:11:20.849Z,21.23
2022-12-12T20:13:49.849Z,20.27
2022-12-12T20:16:18.893Z,21.17
2022-12-12T20:18:49.579Z,22.87
2022-12-12T20:21:43.577Z,22.80
2022-12-12T20:24:07.454Z,22.77
2022-12-12T20:26:37.206Z,22.53
2022-12-12T20:29:06.771Z,23.00
2022-12-12T20:31:35.488Z,22.57
2022-12-12T20:34:04.045Z,21.33
2022-12-12T20:36:32.791Z,21.67
2022-12-12T20:39:01.680Z,21.57
2022-12-12T20:41:31.063Z,22.10
2022-12-12T20:44:04.124Z,22.53
2022-12-12T20:46:33.328Z,21.27
2022-12-12T20:49:05.214Z,21.53
2022-12-12T20:54:24.628Z,22.23
2022-12-12T20:56:56.030Z,23.47
2022-12-12T20:59:28.862Z,22.57
2022-12-12T21:02:02.355Z,22.30
2022-12-12T21:04:32.186Z,23.00
2022-12-12T21:07:00.586Z,21.57
2022-12-12T21:09:29.382Z,21.07
2022-12-12T21:11:59.191Z,22.00
2022-12-12T21:14:30.950Z,23.13
2022-12-12T21:16:59.499Z,22.00
2022-12-12T21:19:31.281Z,23.70
2022-12-12T21:21:59.658Z,22.30
2022-12-12T21:24:28.017Z,22.57
2022-12-12T21:26:56.548Z,21.97
2022-12-12T21:29:25.012Z,21.73
2022-12-12T21:31:54.940Z,21.53
2022-12-12T21:34:24.031Z,24.20
2022-12-12T21:36:53.672Z,21.90
2022-12-12T21:39:23.488Z,21.70
2022-12-12T21:41:51.941Z,21.83
2022-12-12T21:44:21.088Z,20.93
2022-12-12T21:46:49.602Z,22.60
2022-12-12T21:49:30.598Z,20.77
2022-12-12T21:51:59.397Z,21.80
2022-12-12T21:54:29.052Z,22.00
2022-12-12T21:56:57.545Z,20.67
2022-12-12T21:59:26.173Z,21.53
2022-12-12T22:01:55.378Z,21.77
2022-12-12T22:04:25.486Z,22.23
2022-12-12T22:06:54.184Z,21.83
2022-12-12T22:09:22.636Z,22.40
2022-12-12T22:11:52.382Z,20.70
2022-12-12T22:14:32.114Z,21.10
2022-12-12T22:17:00.550Z,21.73
2022-12-12T22:19:31.187Z,22.57
2022-12-12T22:21:59.886Z,21.37
2022-12-12T22:24:28.228Z,21.63
2022-12-12T22:26:56.647Z,21.17
2022-12-12T22:29:26.817Z,21.53
2022-12-12T22:31:55.278Z,21.30
2022-12-12T22:34:24.318Z,20.93
2022-12-12T22:36:54.186Z,21.73
2022-12-12T22:39:25.029Z,21.63
2022-12-12T22:41:53.476Z,21.20
2022-12-12T22:44:22.184Z,22.23
2022-12-12T22:46:51.455Z,21.37
2022-12-12T22:49:21.091Z,21.97
2022-12-12T22:51:49.923Z,20.07
2022-12-12T22:54:19.816Z,20.60
2022-12-12T22:56:48.253Z,22.03
2022-12-12T22:59:16.893Z,22.40
2022-12-12T23:01:45.419Z,21.80
2022-12-12T23:04:14.154Z,21.10
2022-12-12T23:06:43.163Z,21.63
2022-12-12T23:09:15.037Z,22.53
2022-12-12T23:11:44.853Z,21.50
2022-12-12T23:14:14.878Z,21.47
2022-12-12T23:16:43.355Z,21.67
2022-12-12T23:19:11.781Z,20.30
2022-12-12T23:21:40.294Z,20.80
2022-12-12T23:24:09.310Z,20.27
2022-12-12T23:26:39.066Z,22.33
2022-12-12T23:29:09.424Z,20.70
2022-12-12T23:31:38.527Z,20.33
2022-12-12T23:34:07.705Z,20.70
2022-12-12T23:36:36.109Z,19.00
2022-12-12T23:39:06.213Z,18.97
2022-12-12T23:41:35.015Z,19.70
2022-12-12T23:44:03.395Z,19.70
2022-12-12T23:46:33.146Z,20.37
2022-12-12T23:49:01.943Z,20.07
2022-12-12T23:51:30.765Z,19.70
2022-12-12T23:53:59.458Z,19.77
2022-12-12T23:56:27.952Z,19.10
2022-12-12T23:58:56.276Z,19.27
